createdAt,value
2023-01-26T00:00:45.745Z,27.80
2023-01-26T00:05:00.550Z,28.30
2023-01-26T00:09:04.677Z,31.00
2023-01-26T00:13:09.193Z,30.40
2023-01-26T00:17:27.303Z,28.00
2023-01-26T00:21:30.297Z,29.60
2023-01-26T00:25:42.090Z,27.60
2023-01-26T00:30:10.767Z,30.00
2023-01-26T00:34:13.755Z,30.90
2023-01-26T00:38:20.229Z,26.00
2023-01-26T00:42:24.171Z,27.50
2023-01-26T00:46:29.017Z,26.00
2023-01-26T00:51:38.952Z,23.50
2023-01-26T00:55:41.712Z,24.20
2023-01-26T00:59:44.526Z,23.00
2023-01-26T01:03:47.436Z,21.70
2023-01-26T01:07:50.802Z,21.40
2023-01-26T01:11:53.570Z,21.30
2023-01-26T01:15:56.311Z,21.10
2023-01-26T01:20:11.118Z,21.10
2023-01-26T01:24:14.636Z,18.10
2023-01-26T01:28:18.701Z,17.10
2023-01-26T01:32:21.791Z,14.50
2023-01-26T01:36:25.016Z,14.00
2023-01-26T01:40:28.211Z,17.40
2023-01-26T01:45:09.904Z,15.80
2023-01-26T01:49:27.169Z,14.80
2023-01-26T01:53:38.319Z,15.30
2023-01-26T01:57:53.681Z,17.50
2023-01-26T02:01:57.745Z,16.40
2023-01-26T02:06:34.493Z,19.20
2023-01-26T02:10:38.323Z,19.00
2023-01-26T02:14:41.909Z,21.60
2023-01-26T02:18:47.804Z,19.70
2023-01-26T02:23:29.243Z,18.70
2023-01-26T02:27:32.627Z,22.90
2023-01-26T02:31:37.267Z,19.00
2023-01-26T02:35:45.600Z,22.40
2023-01-26T02:39:57.158Z,18.20
2023-01-26T02:44:00.817Z,19.70
2023-01-26T02:48:06.768Z,20.70
2023-01-26T02:52:09.760Z,22.60
2023-01-26T02:56:12.696Z,21.60
2023-01-26T03:00:25.571Z,19.30
2023-01-26T03:04:28.751Z,22.30
2023-01-26T03:08:31.671Z,21.40
2023-01-26T03:12:36.759Z,19.40
2023-01-26T03:16:40.040Z,18.90
2023-01-26T03:30:19.210Z,20.50
2023-01-26T03:35:16.187Z,21.50
2023-01-26T03:44:47.318Z,17.40
2023-01-26T03:49:08.786Z,18.70
2023-01-26T03:53:35.791Z,17.40
2023-01-26T03:57:39.985Z,16.70
2023-01-26T04:02:09.002Z,17.40
2023-01-26T04:06:30.571Z,16.50
2023-01-26T04:10:33.525Z,14.90
2023-01-26T04:14:55.024Z,15.00
2023-01-26T04:19:16.426Z,17.20
2023-01-26T04:23:20.091Z,18.80
2023-01-26T04:27:23.876Z,19.20
2023-01-26T04:31:26.605Z,15.30
2023-01-26T04:35:29.380Z,17.50
2023-01-26T04:39:32.164Z,16.70
2023-01-26T04:43:34.958Z,14.90
2023-01-26T04:47:37.818Z,13.90
2023-01-26T04:51:40.789Z,12.40
2023-01-26T04:56:00.520Z,12.30
2023-01-26T05:00:05.107Z,17.40
2023-01-26T05:04:11.586Z,14.60
2023-01-26T05:08:41.782Z,16.30
2023-01-26T05:12:44.642Z,17.80
2023-01-26T05:16:48.403Z,18.00
2023-01-26T05:20:51.171Z,15.80
2023-01-26T05:24:53.911Z,18.90
2023-01-26T05:28:56.732Z,17.50
2023-01-26T05:33:05.241Z,19.50
2023-01-26T05:37:09.319Z,20.50
2023-01-26T05:41:12.232Z,23.70
2023-01-26T05:45:15.281Z,18.80
2023-01-26T05:49:18.271Z,18.70
2023-01-26T05:53:21.184Z,18.70
2023-01-26T05:57:24.398Z,13.80
2023-01-26T06:02:20.556Z,15.20
2023-01-26T06:06:23.658Z,15.90
2023-01-26T06:10:26.863Z,14.40
2023-01-26T06:14:29.688Z,15.90
2023-01-26T06:18:42.015Z,15.00
2023-01-26T06:22:44.796Z,18.40
2023-01-26T06:26:49.497Z,16.70
2023-01-26T06:30:53.760Z,16.70
2023-01-26T06:34:56.597Z,14.70
2023-01-26T06:39:25.718Z,18.00
2023-01-26T06:43:35.788Z,16.00
2023-01-26T06:47:38.685Z,15.40
2023-01-26T06:52:28.544Z,15.60
2023-01-26T06:56:31.410Z,16.70
2023-01-26T07:00:34.369Z,15.60
2023-01-26T07:04:51.464Z,16.90
2023-01-26T07:08:54.318Z,18.50
2023-01-26T07:12:57.132Z,19.90
2023-01-26T07:17:03.014Z,20.60
2023-01-26T07:21:31.885Z,16.80
2023-01-26T07:25:59.981Z,22.00
2023-01-26T07:30:53.023Z,19.80
2023-01-26T07:35:45.826Z,18.90
2023-01-26T07:39:49.190Z,20.80
2023-01-26T07:43:52.024Z,19.80
2023-01-26T07:48:24.157Z,20.50
2023-01-26T07:52:52.594Z,16.70
2023-01-26T07:56:55.431Z,19.90
2023-01-26T08:01:08.450Z,21.20
2023-01-26T08:05:11.618Z,16.90
2023-01-26T08:09:14.755Z,18.40
2023-01-26T08:13:29.956Z,17.20
2023-01-26T08:17:46.688Z,16.50
2023-01-26T08:21:51.417Z,16.80
2023-01-26T08:25:54.590Z,18.70
2023-01-26T08:29:57.408Z,19.80
2023-01-26T08:34:00.330Z,21.50
2023-01-26T08:38:04.727Z,19.20
2023-01-26T08:42:07.900Z,18.40
2023-01-26T08:46:20.963Z,16.90
2023-01-26T08:50:25.671Z,19.00
2023-01-26T08:54:29.053Z,18.20
2023-01-26T08:58:33.933Z,16.80
2023-01-26T09:02:36.799Z,16.00
2023-01-26T09:06:39.965Z,12.40
2023-01-26T09:10:45.350Z,13.30
2023-01-26T09:14:48.207Z,15.20
2023-01-26T09:19:19.090Z,12.90
2023-01-26T09:23:48.522Z,15.30
2023-01-26T09:27:51.317Z,21.50
2023-01-26T09:31:54.212Z,15.60
2023-01-26T09:35:57.136Z,14.90
2023-01-26T09:39:59.950Z,13.70
2023-01-26T09:44:41.161Z,10.40
2023-01-26T09:49:01.435Z,12.20
2023-01-26T09:53:15.530Z,18.10
2023-01-26T09:57:24.948Z,14.10
2023-01-26T10:02:09.047Z,12.10
2023-01-26T10:06:15.231Z,12.00
2023-01-26T10:10:30.497Z,10.50
2023-01-26T10:14:52.928Z,10.60
2023-01-26T10:19:42.572Z,12.40
2023-01-26T10:23:51.566Z,12.70
2023-01-26T10:27:54.685Z,12.00
2023-01-26T10:31:57.589Z,12.30
2023-01-26T10:36:05.297Z,14.20
2023-01-26T10:40:28.798Z,15.80
2023-01-26T10:44:37.874Z,12.50
2023-01-26T10:48:52.908Z,10.70
2023-01-26T10:53:09.462Z,12.70
2023-01-26T10:57:19.744Z,11.70
2023-01-26T11:01:27.879Z,10.50
2023-01-26T11:05:32.047Z,14.40
2023-01-26T11:09:34.854Z,12.50
2023-01-26T11:13:37.680Z,13.40
2023-01-26T11:17:56.489Z,12.10
2023-01-26T11:22:09.701Z,11.60
2023-01-26T11:26:30.923Z,14.20
2023-01-26T11:31:12.092Z,14.60
2023-01-26T11:35:53.911Z,13.90
2023-01-26T11:40:13.818Z,14.30
2023-01-26T11:44:22.711Z,14.50
2023-01-26T11:49:06.250Z,15.40
2023-01-26T11:53:57.149Z,14.60
2023-01-26T11:58:35.296Z,14.40
2023-01-26T12:02:38.296Z,9.80
2023-01-26T12:06:56.306Z,14.60
2023-01-26T12:11:22.955Z,13.60
2023-01-26T12:15:34.361Z,12.70
2023-01-26T12:19:46.024Z,13.50
2023-01-26T12:24:48.318Z,12.10
2023-01-26T12:29:29.756Z,11.00
2023-01-26T12:33:34.545Z,11.60
2023-01-26T12:38:18.161Z,14.50
2023-01-26T12:42:29.598Z,19.10
2023-01-26T12:46:39.422Z,23.30
2023-01-26T12:51:30.275Z,24.80
2023-01-26T13:01:20.770Z,14.00
2023-01-26T13:05:33.674Z,21.70
2023-01-26T13:09:36.494Z,10.80
2023-01-26T13:14:17.155Z,14.00
2023-01-26T13:18:50.523Z,12.80
2023-01-26T13:22:55.125Z,15.30
2023-01-26T13:27:01.582Z,14.40
2023-01-26T13:31:06.698Z,14.60
2023-01-26T13:35:14.081Z,11.50
2023-01-26T13:39:44.470Z,13.20
2023-01-26T13:44:16.970Z,13.30
2023-01-26T13:48:54.087Z,13.10
2023-01-26T13:52:58.627Z,11.40
2023-01-26T13:57:06.340Z,9.50
2023-01-26T14:01:14.044Z,12.20
2023-01-26T14:05:23.331Z,11.60
2023-01-26T14:09:29.369Z,13.90
2023-01-26T14:13:39.068Z,12.00
2023-01-26T14:18:05.917Z,11.50
2023-01-26T14:22:16.747Z,11.30
2023-01-26T14:26:55.069Z,13.20
2023-01-26T14:31:38.667Z,15.20
2023-01-26T14:35:43.662Z,14.00
2023-01-26T14:40:22.934Z,14.10
2023-01-26T14:44:25.903Z,11.00
2023-01-26T14:48:37.980Z,11.00
2023-01-26T14:52:46.009Z,12.00
2023-01-26T14:56:50.219Z,13.00
2023-01-26T15:01:03.197Z,12.20
2023-01-26T15:09:57.941Z,14.60
2023-01-26T15:14:00.805Z,16.10
2023-01-26T15:19:01.230Z,16.20
2023-01-26T15:23:25.369Z,15.90
2023-01-26T15:27:36.368Z,13.10
2023-01-26T15:31:42.439Z,15.80
2023-01-26T15:35:58.056Z,16.50
2023-01-26T15:40:00.861Z,13.10
2023-01-26T15:44:03.909Z,12.00
2023-01-26T15:48:07.344Z,17.80
2023-01-26T15:52:37.254Z,12.10
2023-01-26T15:56:40.099Z,13.80
2023-01-26T16:00:42.997Z,15.80
2023-01-26T16:04:45.987Z,18.00
2023-01-26T16:08:49.399Z,18.00
2023-01-26T16:12:53.191Z,17.10
2023-01-26T16:16:56.200Z,18.70
2023-01-26T16:20:59.003Z,19.10
2023-01-26T16:25:02.559Z,18.40
2023-01-26T16:29:05.519Z,16.60
2023-01-26T16:38:52.651Z,19.40
2023-01-26T16:42:55.434Z,17.10
2023-01-26T16:46:58.202Z,16.30
2023-01-26T16:51:11.807Z,22.40
2023-01-26T16:55:16.215Z,21.30
2023-01-26T16:59:19.102Z,19.90
2023-01-26T17:03:37.594Z,20.00
2023-01-26T17:07:40.479Z,19.10
2023-01-26T17:11:43.541Z,17.60
2023-01-26T17:15:46.663Z,18.90
2023-01-26T17:19:49.521Z,19.80
2023-01-26T17:23:55.555Z,23.20
2023-01-26T17:27:58.429Z,17.50
2023-01-26T17:32:02.182Z,14.90
2023-01-26T17:36:07.068Z,14.90
2023-01-26T17:40:10.664Z,11.00
2023-01-26T17:44:15.697Z,13.70
2023-01-26T17:48:18.523Z,11.70
2023-01-26T17:52:49.458Z,14.60
2023-01-26T17:56:54.998Z,15.00
2023-01-26T18:00:57.809Z,13.80
2023-01-26T18:05:01.130Z,15.60
2023-01-26T18:09:12.585Z,13.70
2023-01-26T18:13:16.365Z,13.20
2023-01-26T18:17:19.150Z,28.50
2023-01-26T18:21:24.965Z,20.50
2023-01-26T18:25:46.592Z,19.60
2023-01-26T18:29:49.431Z,29.50
2023-01-26T18:33:52.884Z,19.80
2023-01-26T18:37:55.702Z,16.70
2023-01-26T18:41:58.488Z,16.60
2023-01-26T18:46:03.451Z,14.30
2023-01-26T18:50:07.530Z,16.50
2023-01-26T18:54:10.430Z,16.40
2023-01-26T18:58:13.642Z,14.30
2023-01-26T19:08:32.534Z,15.40
2023-01-26T19:12:35.432Z,12.30
2023-01-26T19:16:49.081Z,11.50
2023-01-26T19:21:00.419Z,12.70
2023-01-26T19:25:03.348Z,12.10
2023-01-26T19:29:31.574Z,12.20
2023-01-26T19:33:34.407Z,12.40
2023-01-26T19:37:37.210Z,12.60
2023-01-26T19:41:40.364Z,12.70
2023-01-26T19:45:51.456Z,12.80
2023-01-26T19:49:54.226Z,12.90
2023-01-26T19:53:58.685Z,14.80
2023-01-26T19:58:01.642Z,12.00
2023-01-26T20:02:04.774Z,11.10
2023-01-26T20:06:16.979Z,16.50
2023-01-26T20:10:19.837Z,17.90
2023-01-26T20:14:26.772Z,16.00
2023-01-26T20:18:29.719Z,18.40
2023-01-26T20:22:34.166Z,16.00
2023-01-26T20:26:36.936Z,20.60
2023-01-26T20:31:15.685Z,15.70
2023-01-26T20:35:18.648Z,15.80
2023-01-26T20:39:25.475Z,17.60
2023-01-26T20:44:01.977Z,17.00
2023-01-26T20:48:05.379Z,18.60
2023-01-26T20:52:08.470Z,21.40
2023-01-26T20:56:15.863Z,19.90
2023-01-26T21:00:20.222Z,18.90
2023-01-26T21:04:23.626Z,20.00
2023-01-26T21:08:26.597Z,16.70
2023-01-26T21:12:29.575Z,14.90
2023-01-26T21:17:36.182Z,15.60
2023-01-26T21:21:38.977Z,17.90
2023-01-26T21:25:41.716Z,15.80
2023-01-26T21:29:44.568Z,18.60
2023-01-26T21:33:49.588Z,16.60
2023-01-26T21:37:56.130Z,18.00
2023-01-26T21:41:59.732Z,17.50
2023-01-26T21:46:02.549Z,19.10
2023-01-26T21:50:06.424Z,20.70
2023-01-26T21:54:09.299Z,19.20
2023-01-26T21:58:30.809Z,20.00
2023-01-26T22:02:33.908Z,16.00
2023-01-26T22:07:03.760Z,16.30
2023-01-26T22:11:08.186Z,17.80
2023-01-26T22:15:11.611Z,14.20
2023-01-26T22:19:15.767Z,14.20
2023-01-26T22:23:18.837Z,16.40
2023-01-26T22:27:21.978Z,12.80
2023-01-26T22:31:28.154Z,14.70
2023-01-26T22:35:33.041Z,12.60
2023-01-26T22:39:40.139Z,11.60
2023-01-26T22:43:44.312Z,10.50
2023-01-26T22:47:51.133Z,10.60
2023-01-26T22:51:55.722Z,11.80
2023-01-26T22:55:59.030Z,11.30
2023-01-26T23:00:02.814Z,15.20
2023-01-26T23:04:07.569Z,13.90
2023-01-26T23:08:10.846Z,13.70
2023-01-26T23:12:14.199Z,13.40
2023-01-26T23:16:17.992Z,14.10
2023-01-26T23:20:22.273Z,16.40
2023-01-26T23:24:25.419Z,16.80
2023-01-26T23:28:32.231Z,18.60
2023-01-26T23:32:35.499Z,15.50
2023-01-26T23:36:38.881Z,15.40
2023-01-26T23:40:43.885Z,15.20
2023-01-26T23:44:47.093Z,16.70
2023-01-26T23:48:50.247Z,15.60
2023-01-26T23:52:53.548Z,17.00
2023-01-26T23:56:56.751Z,18.10
